Flight Track Log - Related Links

Times and Time Zones

All times are in EST time to prevent confusion due to time zone crossing. See the N613CC flight status page for this flight to view local times or setup timezone preferences in your user account.

Time Position Orientation Groundspeed Altitude Reporting Facility
EST Latitude Longitude Course Direction KTS MPH feet Rate Location/Type
Thu 12:55:22 AM 28.5500 -81.3333 90° East 66 76 1,100  Level Orlando TRACON
Thu 12:55:52 AM 28.5500 -81.3167 24° Northeast 73 84 1,300 333 Climbing Orlando TRACON
Thu 12:56:52 AM 28.5833 -81.3000 90° East 101 116 1,600 200 Climbing Orlando TRACON
Thu 12:57:52 AM 28.5833 -81.2667 111° Southeast 133 153 1,700 350 Climbing Orlando TRACON
Thu 12:58:52 AM 28.5667 -81.2167 120° Southeast 132 152 2,300 550 Climbing Orlando TRACON
Thu 12:59:52 AM 28.5500 -81.1833 120° Southeast 140 161 2,800 600 Climbing Orlando TRACON
Thu 01:00:52 AM 28.5333 -81.1500 111° Southeast 139 160 3,500 650 Climbing Orlando TRACON
Thu 01:01:52 AM 28.5167 -81.1000 120° Southeast 137 158 4,100 650 Climbing Orlando TRACON
Thu 01:02:52 AM 28.5000 -81.0667 156° South 134 154 4,800 650 Climbing Orlando TRACON
Thu 01:03:52 AM 28.4667 -81.0500 139° Southeast 124 143 5,400 650 Climbing Orlando TRACON
Thu 01:04:52 AM 28.4500 -81.0333 180° South 118 136 6,100 350 Climbing Orlando TRACON
Thu 01:05:52 AM 28.4000 -81.0333 156° South 134 154 6,100 -50 Level Orlando TRACON
Thu 01:06:52 AM 28.3667 -81.0167 180° South 148 170 6,000  Descending Orlando TRACON
Thu 01:07:52 AM 28.3167 -81.0167 156° South 150 173 6,100 50 Climbing Orlando TRACON
Thu 01:08:52 AM 28.2833 -81.0000 180° South 148 170 6,100  Level Orlando TRACON
Thu 01:09:52 AM 28.2500 -81.0000 164° South 150 173 6,100  Level Orlando TRACON
Thu 01:10:52 AM 28.2000 -80.9833 180° South 153 176 6,100  Level Orlando TRACON
Thu 01:11:52 AM 28.1667 -80.9833 164° South 153 176 6,100  Level Orlando TRACON
Thu 01:12:52 AM 28.1167 -80.9667 180° South 151 174 6,100  Level Orlando TRACON
Thu 01:13:52 AM 28.0833 -80.9667 164° South 153 176 6,100 -50 Level Orlando TRACON
Thu 01:14:52 AM 28.0333 -80.9500 178° South 153 176 6,000 -100 Descending Orlando TRACON
Thu 01:22:49 AM 27.7253 -80.9353 148° Southeast  Level FlightAware Approximate
Thu 01:23:49 AM 27.6919 -80.9113 148° Southeast  Level FlightAware Approximate
Thu 01:24:49 AM 27.6584 -80.8873 148° Southeast  Level FlightAware Approximate
Thu 01:25:49 AM 27.6250 -80.8632 148° Southeast  Level FlightAware Approximate
Thu 01:26:49 AM 27.5915 -80.8392 148° Southeast  Level FlightAware Approximate
Thu 01:27:49 AM 27.5580 -80.8152 148° Southeast  Level FlightAware Approximate
Thu 01:28:49 AM 27.5245 -80.7913 148° Southeast  Level FlightAware Approximate
Thu 01:29:49 AM 27.4911 -80.7673 148° Southeast  Level FlightAware Approximate
Thu 01:30:49 AM 27.4576 -80.7433 148° Southeast  Level FlightAware Approximate
Thu 01:31:49 AM 27.4241 -80.7194 148° Southeast  Level FlightAware Approximate
Thu 01:32:49 AM 27.3906 -80.6955 148° Southeast  Level FlightAware Approximate
Thu 01:33:49 AM 27.3571 -80.6716 148° Southeast  Level FlightAware Approximate
Thu 01:34:49 AM 27.3236 -80.6477 148° Southeast  Level FlightAware Approximate
Thu 01:35:49 AM 27.2901 -80.6238 148° Southeast  Level FlightAware Approximate
Thu 01:36:49 AM 27.2566 -80.6000 148° Southeast  Level FlightAware Approximate
Thu 01:37:49 AM 27.2231 -80.5761 148° Southeast  Level FlightAware Approximate
Thu 01:38:49 AM 27.1896 -80.5523 148° Southeast  Level FlightAware Approximate
Thu 01:39:49 AM 27.1560 -80.5284 148° Southeast  Level FlightAware Approximate
Thu 01:40:49 AM 27.1225 -80.5046 148° Southeast  Level FlightAware Approximate
Thu 01:41:49 AM 27.0890 -80.4809 148° Southeast  Level FlightAware Approximate
Thu 01:42:49 AM 27.0555 -80.4571 148° Southeast  Level FlightAware Approximate
Thu 01:43:49 AM 27.0219 -80.4333 148° Southeast  Level FlightAware Approximate
Thu 01:44:49 AM 26.9884 -80.4096 148° Southeast  Level FlightAware Approximate
Thu 01:45:49 AM 26.9548 -80.3858 148° Southeast  Level FlightAware Approximate
Thu 01:46:49 AM 26.9213 -80.3621 148° Southeast  Level FlightAware Approximate
Thu 01:47:49 AM 26.8877 -80.3384 148° Southeast  Level FlightAware Approximate
Thu 01:48:49 AM 26.8542 -80.3147 127° Southeast  Level FlightAware Approximate
Thu 01:49:49 AM 26.8333 -80.2832 77° East  Level FlightAware Approximate
Thu 01:50:49 AM 26.8423 -80.2399 261° West  Level Estimated
Thu 01:51:49 AM 26.8333 -80.3000 80° East  Level FlightAware Approximate
Thu 01:52:49 AM 26.8404 -80.2563 80° East  Level Estimated
Thu 01:53:49 AM 26.8475 -80.2125 260° West  Level Estimated
Thu 01:54:49 AM 26.8404 -80.2563 80° East  Level Estimated
Thu 01:55:49 AM 26.8475 -80.2125 195° South  Level Estimated
Thu 01:56:49 AM 26.8333 -80.2167 338° Northwest  Level FlightAware Approximate
Thu 01:57:49 AM 26.8701 -80.2333 158° South  Level Estimated
Thu 01:58:49 AM 26.8333 -80.2167 338° Northwest  Level FlightAware Approximate
Thu 01:59:49 AM 26.8701 -80.2333 158° South  Level Estimated
Thu 02:00:49 AM 26.8333 -80.2167 338° Northwest  Level FlightAware Approximate
Thu 02:01:49 AM 26.8701 -80.2333 158° South  Level Estimated
Thu 02:02:49 AM 26.8333 -80.2167 338° Northwest  Level FlightAware Approximate
Thu 02:03:49 AM 26.8701 -80.2333 158° South  Level Estimated
Thu 02:04:49 AM 26.8333 -80.2167 338° Northwest  Level FlightAware Approximate
Thu 02:05:49 AM 26.8701 -80.2333 158° South  Level Estimated
Thu 02:06:49 AM 26.8333 -80.2167 338° Northwest  Level FlightAware Approximate
Thu 02:07:49 AM 26.8701 -80.2333 158° South  Level Estimated
Thu 02:08:49 AM 26.8333 -80.2167 338° Northwest  Level FlightAware Approximate
Thu 02:09:49 AM 26.8701 -80.2333 158° South  Level Estimated
Thu 02:10:49 AM 26.8333 -80.2167 338° Northwest  Level FlightAware Approximate
Thu 02:11:49 AM 26.8701 -80.2333 338° Northwest  Level Estimated

Login

Don't have an account? Register now (free) for customized features, flight alerts, and more!